Time;durP1;ratioP1;P1;durP2;ratioP2;P2;SDS_P1;SDS_P2;PMS_P1;PMS_P2;Temp;Humidity;BMP_temperature;BMP_pressure;BME280_temperature;BME280_humidity;BME280_pressure;Samples;Min_cycle;Max_cycle;Signal;HPM_P1;HPM_P2
2024/01/14 00:00:01;;;;;;;18.98;14.20;;;5.40;99.90;;;;;;5061346;28;20082;-81
2024/01/14 00:02:27;;;;;;;19.98;15.25;;;5.30;99.90;;;;;;5029817;28;20082;-81
2024/01/14 00:04:53;;;;;;;15.77;14.07;;;5.30;99.90;;;;;;5047941;28;20605;-81
2024/01/14 00:07:19;;;;;;;20.83;14.70;;;5.20;99.90;;;;;;5064617;28;20044;-81
2024/01/14 00:09:44;;;;;;;14.68;13.00;;;5.20;99.90;;;;;;5029493;28;20048;-81
2024/01/14 00:12:10;;;;;;;20.08;14.85;;;5.20;99.90;;;;;;5062602;28;20044;-81
2024/01/14 00:14:38;;;;;;;16.65;13.02;;;5.20;99.90;;;;;;5045125;28;20425;-81
2024/01/14 00:17:04;;;;;;;16.85;14.07;;;5.20;99.90;;;;;;5043417;28;20040;-81
2024/01/14 00:19:30;;;;;;;19.25;14.40;;;5.20;99.90;;;;;;5044183;28;20041;-81
2024/01/14 00:21:55;;;;;;;15.15;13.60;;;5.20;99.90;;;;;;5028392;28;20531;-81
2024/01/14 00:24:24;;;;;;;22.25;20.42;;;5.30;99.90;;;;;;5030740;28;20041;-81
2024/01/14 00:26:52;;;;;;;17.50;13.40;;;5.30;99.90;;;;;;5025140;28;20037;-81
2024/01/14 00:29:17;;;;;;;17.63;14.23;;;5.40;99.90;;;;;;5028728;28;20040;-81
2024/01/14 00:31:43;;;;;;;21.30;15.05;;;5.40;99.90;;;;;;5029723;28;20040;-81
2024/01/14 00:34:09;;;;;;;22.98;15.27;;;5.40;99.90;;;;;;5029264;28;20044;-81
2024/01/14 00:36:39;;;;;;;25.40;23.25;;;5.40;99.90;;;;;;5065109;28;20045;-81
2024/01/14 00:39:05;;;;;;;19.98;13.98;;;5.50;99.90;;;;;;5008728;28;20079;-81
2024/01/14 00:41:30;;;;;;;28.05;25.88;;;5.40;99.90;;;;;;5016982;28;20060;-82
2024/01/14 00:43:56;;;;;;;37.90;26.45;;;5.40;99.90;;;;;;5003168;28;20442;-81
2024/01/14 00:46:24;;;;;;;20.50;18.55;;;5.40;99.90;;;;;;4999402;28;20033;-82
2024/01/14 00:48:50;;;;;;;15.27;13.77;;;5.30;99.90;;;;;;5036715;28;20079;-81
2024/01/14 00:51:15;;;;;;;16.73;15.02;;;5.30;99.90;;;;;;5000670;28;20084;-82
2024/01/14 00:53:41;;;;;;;20.02;14.90;;;5.20;99.90;;;;;;5008703;28;20524;-82
2024/01/14 00:56:09;;;;;;;15.40;13.65;;;5.20;99.90;;;;;;5013743;28;20122;-81
2024/01/14 00:58:35;;;;;;;18.60;13.70;;;5.20;99.90;;;;;;5021023;28;20044;-82
2024/01/14 01:01:00;;;;;;;18.50;13.98;;;5.20;99.90;;;;;;5004998;28;20033;-81
2024/01/14 01:03:26;;;;;;;16.25;13.05;;;5.30;99.90;;;;;;5000085;28;20074;-82
2024/01/14 01:05:54;;;;;;;16.35;14.20;;;5.20;99.90;;;;;;5018591;28;20033;-81
2024/01/14 01:08:19;;;;;;;16.92;13.32;;;5.30;99.90;;;;;;4998985;28;20041;-81
2024/01/14 01:10:45;;;;;;;16.15;13.13;;;5.20;99.90;;;;;;5033058;28;20045;-82
2024/01/14 01:13:11;;;;;;;15.43;12.77;;;5.20;99.90;;;;;;5041102;28;20131;-82
2024/01/14 01:15:37;;;;;;;38.97;35.05;;;5.20;99.90;;;;;;5016143;28;20045;-83
2024/01/14 01:18:03;;;;;;;19.40;14.60;;;5.20;99.90;;;;;;5015521;28;20049;-82
2024/01/14 01:20:29;;;;;;;47.55;44.40;;;5.10;99.90;;;;;;5019821;28;20406;-83
2024/01/14 01:22:55;;;;;;;25.50;23.58;;;5.10;99.90;;;;;;5032137;28;20036;-82
2024/01/14 01:25:21;;;;;;;18.20;16.38;;;5.00;99.90;;;;;;5020813;28;20044;-81
2024/01/14 01:27:49;;;;;;;17.30;15.63;;;4.90;99.90;;;;;;5020109;28;20045;-82
2024/01/14 01:30:15;;;;;;;16.73;15.43;;;4.90;99.90;;;;;;5016712;28;20074;-82
2024/01/14 01:32:41;;;;;;;17.42;15.68;;;4.80;99.90;;;;;;5000208;28;20464;-81
2024/01/14 01:35:07;;;;;;;16.15;14.57;;;4.80;99.90;;;;;;5018913;28;20552;-81
2024/01/14 01:37:32;;;;;;;15.63;14.32;;;4.80;99.90;;;;;;5015789;28;20052;-82
2024/01/14 01:39:58;;;;;;;15.30;13.82;;;4.70;99.90;;;;;;5025935;28;20056;-81
2024/01/14 01:42:24;;;;;;;16.17;14.88;;;4.60;99.90;;;;;;5028052;28;20225;-81
2024/01/14 01:44:49;;;;;;;16.42;14.75;;;4.50;99.90;;;;;;5043672;28;20505;-81
2024/01/14 01:47:16;;;;;;;16.40;15.00;;;4.40;99.90;;;;;;5045977;28;20473;-81
2024/01/14 01:49:43;;;;;;;17.00;15.40;;;4.20;99.90;;;;;;5044523;28;20055;-81
2024/01/14 01:52:10;;;;;;;16.85;15.23;;;4.20;99.90;;;;;;5064203;28;20519;-81
2024/01/14 01:54:38;;;;;;;16.90;15.45;;;4.10;99.90;;;;;;5031356;28;20100;-81
2024/01/14 01:57:05;;;;;;;17.08;15.32;;;4.00;99.90;;;;;;5027681;28;20052;-81
2024/01/14 01:59:31;;;;;;;16.50;15.18;;;4.00;99.90;;;;;;5033081;28;20085;-81
2024/01/14 02:01:59;;;;;;;17.23;15.60;;;4.00;99.90;;;;;;5065934;28;20044;-81
2024/01/14 02:04:25;;;;;;;18.80;17.05;;;3.90;99.90;;;;;;5026194;28;20048;-81
2024/01/14 02:06:51;;;;;;;18.02;16.17;;;3.90;99.90;;;;;;5032401;28;20474;-81
2024/01/14 02:09:17;;;;;;;18.30;16.40;;;3.80;99.90;;;;;;5049104;28;20045;-81
2024/01/14 02:11:43;;;;;;;18.02;16.13;;;3.70;99.90;;;;;;5030558;28;20097;-81
2024/01/14 02:14:09;;;;;;;17.77;16.00;;;3.70;99.90;;;;;;5034366;28;20551;-81
2024/01/14 02:16:35;;;;;;;17.27;15.57;;;3.60;99.90;;;;;;5032559;28;20477;-81
2024/01/14 02:19:01;;;;;;;18.48;16.95;;;3.50;99.90;;;;;;5032094;28;20041;-81
2024/01/14 02:21:32;;;;;;;19.25;17.70;;;3.50;99.90;;;;;;5048718;28;20041;-81
2024/01/14 02:24:16;;;;;;;19.48;17.80;;;3.40;99.90;;;;;;5045958;28;20041;-81
2024/01/14 02:26:42;;;;;;;19.88;18.02;;;3.30;99.90;;;;;;5030389;28;20405;-81
2024/01/14 02:29:09;;;;;;;20.50;18.38;;;3.20;99.90;;;;;;5031769;28;20036;-81
2024/01/14 02:31:34;;;;;;;20.55;18.65;;;3.20;99.90;;;;;;5048320;28;20055;-81
2024/01/14 02:34:01;;;;;;;20.40;18.60;;;3.20;99.90;;;;;;5046573;28;20418;-81
2024/01/14 02:36:26;;;;;;;20.42;18.50;;;3.10;99.90;;;;;;5065042;28;20133;-81
2024/01/14 02:38:52;;;;;;;22.40;20.17;;;3.10;99.90;;;;;;5029292;28;20753;-81
2024/01/14 02:41:17;;;;;;;22.15;19.80;;;3.10;99.90;;;;;;5049384;28;20098;-81
2024/01/14 02:43:43;;;;;;;24.10;21.92;;;3.10;99.90;;;;;;5047386;28;20040;-81
2024/01/14 02:46:08;;;;;;;27.25;25.08;;;3.10;99.90;;;;;;5045456;28;20071;-81
2024/01/14 02:48:34;;;;;;;30.00;27.50;;;3.20;99.90;;;;;;5047354;28;20362;-81
2024/01/14 02:51:00;;;;;;;26.58;24.17;;;3.30;99.90;;;;;;5032699;28;20972;-80
2024/01/14 02:53:26;;;;;;;25.38;23.05;;;3.40;99.90;;;;;;5030173;28;20132;-80
2024/01/14 02:55:51;;;;;;;24.02;22.00;;;3.60;99.90;;;;;;5045477;28;20119;-80
2024/01/14 02:58:17;;;;;;;26.30;23.98;;;3.60;99.90;;;;;;5064571;28;20040;-80
2024/01/14 03:00:43;;;;;;;23.17;21.10;;;3.60;99.90;;;;;;5047747;28;20045;-79
2024/01/14 03:03:08;;;;;;;21.58;19.55;;;3.60;99.90;;;;;;5032204;28;20051;-80
2024/01/14 03:05:34;;;;;;;25.98;19.92;;;3.50;99.90;;;;;;5045906;28;20033;-80
2024/01/14 03:08:00;;;;;;;22.25;19.92;;;3.40;99.90;;;;;;5028548;28;20033;-80
2024/01/14 03:10:25;;;;;;;22.42;20.73;;;3.50;99.90;;;;;;5049158;28;20106;-80
2024/01/14 03:12:51;;;;;;;23.08;20.88;;;3.40;99.90;;;;;;5045649;28;20044;-80
2024/01/14 03:15:17;;;;;;;25.45;22.73;;;3.50;99.90;;;;;;5027587;28;20040;-80
2024/01/14 03:17:42;;;;;;;25.90;22.95;;;3.50;99.90;;;;;;5048885;28;20037;-80
2024/01/14 03:20:09;;;;;;;26.90;22.55;;;3.60;99.90;;;;;;5044615;28;20053;-80
2024/01/14 03:22:34;;;;;;;22.77;20.67;;;3.60;99.90;;;;;;5031359;28;20048;-80
2024/01/14 03:25:02;;;;;;;23.08;20.77;;;3.60;99.90;;;;;;5030379;28;20028;-80
2024/01/14 03:27:28;;;;;;;20.83;18.92;;;3.60;99.90;;;;;;5025154;28;20126;-80
2024/01/14 03:29:53;;;;;;;21.52;18.73;;;3.50;99.90;;;;;;5030773;28;20623;-80
2024/01/14 03:32:19;;;;;;;21.90;18.58;;;3.50;99.90;;;;;;5027707;28;20068;-80
2024/01/14 03:34:45;;;;;;;20.90;19.10;;;3.50;99.90;;;;;;5049387;28;20404;-80
2024/01/14 03:37:10;;;;;;;19.88;17.55;;;3.40;99.90;;;;;;5044130;28;20040;-80
2024/01/14 03:39:36;;;;;;;24.35;18.90;;;3.40;99.90;;;;;;5046952;28;20191;-80
2024/01/14 03:42:02;;;;;;;22.20;20.00;;;3.40;99.90;;;;;;5045507;28;20043;-80
2024/01/14 03:44:27;;;;;;;20.63;16.75;;;3.40;99.90;;;;;;5031125;28;20063;-81
2024/01/14 03:46:53;;;;;;;19.88;17.90;;;3.30;99.90;;;;;;5065623;28;20056;-80
2024/01/14 03:49:19;;;;;;;19.58;17.45;;;3.30;99.90;;;;;;5046558;28;20055;-80
2024/01/14 03:51:44;;;;;;;18.38;16.38;;;3.20;99.90;;;;;;5029476;28;20049;-80
2024/01/14 03:54:10;;;;;;;17.92;16.10;;;3.20;99.90;;;;;;5063918;28;20044;-80
2024/01/14 03:56:36;;;;;;;23.95;17.52;;;3.10;99.90;;;;;;5045705;28;20064;-80
2024/01/14 03:59:01;;;;;;;19.27;15.75;;;3.10;99.90;;;;;;5046844;28;20083;-80
2024/01/14 04:01:27;;;;;;;18.90;16.40;;;3.00;99.90;;;;;;5029117;28;20508;-80
2024/01/14 04:03:53;;;;;;;17.88;15.70;;;2.90;99.90;;;;;;5064967;28;20043;-80
2024/01/14 04:06:23;;;;;;;19.95;16.80;;;2.80;99.90;;;;;;5030881;28;20047;-80
2024/01/14 04:08:48;;;;;;;27.45;18.75;;;2.80;99.90;;;;;;5029758;28;20090;-80
2024/01/14 04:11:14;;;;;;;22.40;17.45;;;2.80;99.90;;;;;;5030035;28;20036;-80
2024/01/14 04:13:40;;;;;;;24.45;18.65;;;2.80;99.90;;;;;;5045656;28;20045;-80
2024/01/14 04:16:07;;;;;;;24.58;17.55;;;2.80;99.90;;;;;;5044222;28;20044;-80
2024/01/14 04:18:35;;;;;;;23.10;16.85;;;2.80;99.90;;;;;;5048593;28;20125;-80
2024/01/14 04:21:00;;;;;;;22.13;17.45;;;2.70;99.90;;;;;;5044644;28;20044;-80
2024/01/14 04:23:26;;;;;;;19.75;16.63;;;2.60;99.90;;;;;;5046168;28;20416;-80
2024/01/14 04:25:52;;;;;;;21.77;16.85;;;2.60;99.90;;;;;;5028007;28;20081;-80
2024/01/14 04:28:17;;;;;;;19.88;16.58;;;2.60;99.90;;;;;;5041164;28;20049;-80
2024/01/14 04:30:43;;;;;;;19.83;17.90;;;2.50;99.90;;;;;;5028046;28;20044;-80
2024/01/14 04:33:09;;;;;;;24.00;18.73;;;2.50;99.90;;;;;;5028059;28;20927;-80
2024/01/14 04:35:35;;;;;;;19.85;18.27;;;2.50;99.90;;;;;;5029082;28;20688;-80
2024/01/14 04:38:00;;;;;;;21.77;19.77;;;2.40;99.90;;;;;;5030609;28;20420;-80
2024/01/14 04:40:26;;;;;;;22.05;19.80;;;2.40;99.90;;;;;;5062495;28;20562;-80
2024/01/14 04:42:52;;;;;;;22.02;20.00;;;2.40;99.90;;;;;;5045717;28;20040;-80
2024/01/14 04:45:18;;;;;;;21.33;19.33;;;2.40;99.90;;;;;;5045476;28;20404;-80
2024/01/14 04:47:44;;;;;;;22.98;20.73;;;2.40;99.90;;;;;;5025629;28;20074;-81
2024/01/14 04:50:10;;;;;;;22.67;20.45;;;2.30;99.90;;;;;;5047759;28;20484;-80
2024/01/14 04:52:36;;;;;;;20.95;18.90;;;2.30;99.90;;;;;;5030335;28;20047;-80
2024/01/14 04:55:01;;;;;;;21.90;19.60;;;2.30;99.90;;;;;;5042892;28;20501;-80
2024/01/14 04:57:27;;;;;;;23.58;19.00;;;2.20;99.90;;;;;;5029433;28;20063;-80
2024/01/14 04:59:53;;;;;;;21.80;19.52;;;2.20;99.90;;;;;;5029675;28;20443;-80
2024/01/14 05:02:18;;;;;;;22.23;19.98;;;2.20;99.90;;;;;;5026298;28;20033;-80
2024/01/14 05:04:44;;;;;;;26.52;20.10;;;2.20;99.90;;;;;;5044621;28;20032;-80
2024/01/14 05:07:10;;;;;;;23.60;20.40;;;2.20;99.90;;;;;;5029152;28;20040;-80
2024/01/14 05:09:36;;;;;;;27.80;21.65;;;2.20;99.90;;;;;;5063448;28;20448;-80
2024/01/14 05:12:01;;;;;;;23.67;21.50;;;2.30;99.90;;;;;;5026021;28;20049;-80
2024/01/14 05:14:27;;;;;;;23.05;20.90;;;2.20;99.90;;;;;;5046287;28;20047;-80
2024/01/14 05:16:53;;;;;;;24.08;21.63;;;2.20;99.90;;;;;;5042302;28;20072;-80
2024/01/14 05:19:18;;;;;;;22.80;20.48;;;2.20;99.90;;;;;;5064077;28;20737;-80
2024/01/14 05:21:44;;;;;;;23.80;21.70;;;2.20;99.90;;;;;;5046984;28;20036;-80
2024/01/14 05:24:10;;;;;;;24.38;20.48;;;2.20;99.90;;;;;;5025689;28;20033;-80
2024/01/14 05:26:40;;;;;;;24.13;21.98;;;2.30;99.90;;;;;;5041597;28;20032;-80
2024/01/14 05:29:05;;;;;;;26.13;23.00;;;2.30;99.90;;;;;;5032707;28;20098;-80
2024/01/14 05:31:31;;;;;;;23.63;21.27;;;2.40;99.90;;;;;;5066210;28;20037;-80
2024/01/14 05:33:57;;;;;;;26.08;21.80;;;2.50;99.90;;;;;;5033491;28;20500;-80
2024/01/14 05:36:22;;;;;;;24.48;22.02;;;2.40;99.90;;;;;;5068212;28;20515;-80
2024/01/14 05:38:48;;;;;;;24.35;21.77;;;2.40;99.90;;;;;;5067420;28;20052;-80
2024/01/14 05:41:14;;;;;;;24.13;19.92;;;2.40;99.90;;;;;;5048503;28;20048;-80
2024/01/14 05:43:39;;;;;;;24.45;20.40;;;2.40;99.90;;;;;;5050266;28;20040;-80
2024/01/14 05:46:05;;;;;;;24.48;20.15;;;2.50;99.90;;;;;;5027679;28;20526;-80
2024/01/14 05:48:31;;;;;;;26.13;20.35;;;2.50;99.90;;;;;;5033133;28;20044;-80
2024/01/14 05:50:57;;;;;;;27.20;19.75;;;2.50;99.90;;;;;;5033752;28;20044;-80
2024/01/14 05:53:22;;;;;;;27.08;19.15;;;2.50;99.90;;;;;;5047971;28;20127;-80
2024/01/14 05:55:48;;;;;;;23.42;19.52;;;2.50;99.90;;;;;;5047557;28;20037;-80
2024/01/14 05:58:14;;;;;;;24.05;19.60;;;2.40;99.90;;;;;;5031275;28;20131;-80
2024/01/14 06:00:39;;;;;;;23.00;20.05;;;2.30;99.90;;;;;;5031680;28;20039;-80
2024/01/14 06:03:05;;;;;;;22.05;19.08;;;2.30;99.90;;;;;;5031894;28;20055;-80
2024/01/14 06:05:31;;;;;;;24.65;19.65;;;2.20;99.90;;;;;;5031725;28;20047;-80
2024/01/14 06:07:56;;;;;;;21.05;18.20;;;2.20;99.90;;;;;;5068041;28;20032;-80
2024/01/14 06:10:22;;;;;;;23.80;19.75;;;2.20;99.90;;;;;;5048755;28;20500;-80
2024/01/14 06:12:48;;;;;;;25.52;20.13;;;2.20;99.90;;;;;;5065839;28;20522;-80
2024/01/14 06:15:13;;;;;;;25.05;19.42;;;2.20;99.90;;;;;;5068372;28;20072;-80
2024/01/14 06:17:39;;;;;;;22.65;18.80;;;2.20;99.90;;;;;;5031106;28;20108;-80
2024/01/14 06:20:07;;;;;;;20.13;18.20;;;2.30;99.90;;;;;;5031832;28;20423;-80
2024/01/14 06:22:32;;;;;;;22.27;19.60;;;2.30;99.90;;;;;;5068042;28;20041;-80
2024/01/14 06:24:58;;;;;;;21.52;19.42;;;2.30;99.90;;;;;;5063090;28;20149;-80
2024/01/14 06:27:25;;;;;;;23.83;19.23;;;2.20;99.90;;;;;;5047763;28;20144;-80
2024/01/14 06:29:51;;;;;;;20.92;18.00;;;2.20;99.90;;;;;;5067565;28;20037;-80
2024/01/14 06:32:17;;;;;;;27.23;18.90;;;2.20;99.90;;;;;;5047578;28;20164;-80
2024/01/14 06:34:42;;;;;;;23.00;20.02;;;2.20;99.90;;;;;;5032683;28;20129;-80
2024/01/14 06:37:08;;;;;;;21.67;19.25;;;2.20;99.90;;;;;;5048827;28;20045;-80
2024/01/14 06:39:34;;;;;;;23.02;19.05;;;2.30;99.90;;;;;;5045461;28;20566;-80
2024/01/14 06:42:00;;;;;;;23.42;19.10;;;2.30;99.90;;;;;;5031604;28;20051;-80
2024/01/14 06:44:26;;;;;;;26.75;18.98;;;2.40;99.90;;;;;;5048626;28;20036;-80
2024/01/14 06:46:52;;;;;;;20.73;18.58;;;2.40;99.90;;;;;;5046756;28;20029;-80
2024/01/14 06:49:18;;;;;;;21.67;19.58;;;2.30;99.90;;;;;;5067637;28;20535;-80
2024/01/14 06:51:45;;;;;;;25.10;22.13;;;2.30;99.90;;;;;;5031887;28;21697;-80
2024/01/14 06:54:11;;;;;;;23.20;19.00;;;2.30;99.90;;;;;;5037578;28;20126;-80
2024/01/14 06:56:47;;;;;;;26.05;19.10;;;2.20;99.90;;;;;;5064292;28;20037;-80
2024/01/14 06:59:20;;;;;;;20.98;18.90;;;2.30;99.90;;;;;;5048517;28;20378;-80
2024/01/14 07:01:46;;;;;;;24.00;18.60;;;2.20;99.90;;;;;;5027262;28;20068;-80
2024/01/14 07:04:12;;;;;;;21.67;19.15;;;2.30;99.90;;;;;;5048350;28;20116;-80
2024/01/14 07:06:38;;;;;;;23.70;20.35;;;2.30;99.90;;;;;;5031165;28;20303;-80
2024/01/14 07:09:04;;;;;;;23.30;21.05;;;2.30;99.90;;;;;;5032790;28;20044;-80
2024/01/14 07:11:31;;;;;;;28.65;20.88;;;2.30;99.90;;;;;;5041913;28;20044;-80
2024/01/14 07:13:58;;;;;;;25.75;20.75;;;2.30;99.90;;;;;;5048468;28;20037;-80
2024/01/14 07:16:24;;;;;;;22.40;19.92;;;2.30;99.90;;;;;;5065727;28;20032;-80
2024/01/14 07:18:49;;;;;;;23.55;19.77;;;2.30;99.90;;;;;;5031385;28;20043;-80
2024/01/14 07:21:15;;;;;;;27.80;19.80;;;2.30;99.90;;;;;;5046594;28;20028;-80
2024/01/14 07:23:41;;;;;;;21.38;19.25;;;2.20;99.90;;;;;;5045543;28;20166;-80
2024/01/14 07:26:18;;;;;;;22.60;20.48;;;2.10;99.90;;;;;;5031553;28;20059;-80
2024/01/14 07:28:44;;;;;;;21.17;19.15;;;2.10;99.90;;;;;;5031125;28;20043;-80
2024/01/14 07:31:10;;;;;;;20.52;18.42;;;2.00;99.90;;;;;;5046494;28;20037;-80
2024/01/14 07:33:36;;;;;;;24.35;18.90;;;2.00;99.90;;;;;;5044775;28;20033;-80
2024/01/14 07:36:02;;;;;;;23.30;18.67;;;2.00;99.90;;;;;;5048173;28;20032;-80
2024/01/14 07:38:27;;;;;;;23.50;20.38;;;2.00;99.90;;;;;;5046954;28;20056;-80
2024/01/14 07:40:53;;;;;;;25.60;19.55;;;2.00;99.90;;;;;;5047327;28;20086;-80
2024/01/14 07:43:18;;;;;;;22.98;19.80;;;2.10;99.90;;;;;;5027732;28;20040;-80
2024/01/14 07:45:44;;;;;;;20.13;18.33;;;2.10;99.90;;;;;;5045246;28;20043;-80
2024/01/14 07:48:10;;;;;;;21.83;19.92;;;2.10;99.90;;;;;;5031171;28;20562;-80
2024/01/14 07:50:35;;;;;;;21.05;19.40;;;2.10;99.90;;;;;;5045683;28;20050;-80
2024/01/14 07:53:01;;;;;;;51.42;29.10;;;2.20;99.90;;;;;;5031038;28;20143;-81
2024/01/14 07:55:26;;;;;;;23.85;21.75;;;2.20;99.90;;;;;;5029823;28;20032;-80
2024/01/14 07:57:52;;;;;;;22.27;19.95;;;2.20;99.90;;;;;;5044996;28;20377;-80
2024/01/14 08:00:18;;;;;;;25.27;22.95;;;2.30;99.90;;;;;;5064774;28;20041;-80
2024/01/14 08:02:43;;;;;;;25.67;23.48;;;2.30;99.90;;;;;;5026567;28;20063;-80
2024/01/14 08:05:09;;;;;;;26.52;24.05;;;2.40;99.90;;;;;;5043316;28;20044;-79
2024/01/14 08:07:35;;;;;;;19.55;18.00;;;2.40;99.90;;;;;;5064550;28;20439;-80
2024/01/14 08:10:01;;;;;;;19.33;16.85;;;2.50;99.90;;;;;;5029024;28;20098;-80
2024/01/14 08:12:27;;;;;;;23.58;21.58;;;2.50;99.90;;;;;;5047894;28;20048;-80
2024/01/14 08:14:53;;;;;;;20.48;18.40;;;2.60;99.90;;;;;;5047055;28;20443;-80
2024/01/14 08:17:19;;;;;;;20.35;18.70;;;2.70;99.90;;;;;;5046379;28;20435;-80
2024/01/14 08:19:46;;;;;;;20.30;18.20;;;2.70;99.90;;;;;;5044498;28;20116;-80
2024/01/14 08:22:11;;;;;;;19.02;17.30;;;2.70;99.90;;;;;;5047563;28;20044;-80
2024/01/14 08:24:41;;;;;;;18.73;17.42;;;2.70;99.90;;;;;;5026443;28;20046;-80
2024/01/14 08:27:06;;;;;;;19.60;18.20;;;2.60;99.90;;;;;;5046251;28;20057;-80
2024/01/14 08:29:32;;;;;;;20.17;18.30;;;2.60;99.90;;;;;;5045264;28;20151;-80
2024/01/14 08:31:58;;;;;;;20.23;18.25;;;2.70;99.90;;;;;;5032690;28;20441;-80
2024/01/14 08:34:23;;;;;;;19.77;18.08;;;2.70;99.90;;;;;;5026686;28;20045;-80
2024/01/14 08:36:49;;;;;;;20.27;18.50;;;2.70;99.90;;;;;;5034133;28;20458;-80
2024/01/14 08:39:15;;;;;;;18.88;17.30;;;2.70;99.90;;;;;;5057706;28;20049;-81
2024/01/14 08:41:40;;;;;;;19.92;18.20;;;2.70;99.90;;;;;;5019847;28;20032;-80
2024/01/14 08:44:09;;;;;;;20.35;18.63;;;2.70;99.90;;;;;;5040003;28;20040;-81
2024/01/14 08:46:39;;;;;;;19.88;18.20;;;2.60;99.90;;;;;;5018652;28;20060;-81
2024/01/14 08:49:05;;;;;;;19.95;18.13;;;2.60;99.90;;;;;;5050229;28;20495;-81
2024/01/14 08:51:31;;;;;;;20.23;18.30;;;2.60;99.90;;;;;;5018143;28;20041;-80
2024/01/14 08:54:00;;;;;;;20.70;18.80;;;2.70;99.90;;;;;;5021733;28;20075;-81
2024/01/14 08:56:28;;;;;;;19.33;17.50;;;2.70;99.90;;;;;;5017570;28;20128;-81
2024/01/14 08:58:55;;;;;;;21.25;19.20;;;2.70;99.90;;;;;;5020030;28;20037;-81
2024/01/14 09:01:20;;;;;;;20.40;18.75;;;2.70;99.90;;;;;;5033416;28;20393;-81
2024/01/14 09:03:46;;;;;;;20.48;18.35;;;2.60;99.90;;;;;;5039831;28;20044;-80
2024/01/14 09:06:12;;;;;;;20.50;18.15;;;2.60;99.90;;;;;;5036521;28;20654;-81
2024/01/14 09:08:37;;;;;;;19.65;17.40;;;2.70;99.90;;;;;;5034183;28;20393;-81
2024/01/14 09:11:03;;;;;;;19.38;17.63;;;2.70;99.90;;;;;;5020683;28;20066;-80
2024/01/14 09:13:29;;;;;;;20.02;18.05;;;2.70;99.90;;;;;;5025240;28;20499;-80
2024/01/14 09:15:55;;;;;;;22.67;19.70;;;2.80;99.90;;;;;;5038901;28;20033;-80
2024/01/14 09:18:20;;;;;;;20.38;18.58;;;2.90;99.90;;;;;;5039048;28;20084;-80
2024/01/14 09:20:46;;;;;;;19.20;17.30;;;3.10;99.90;;;;;;5017592;28;20033;-81
2024/01/14 09:23:12;;;;;;;19.65;17.60;;;3.10;99.90;;;;;;5017970;28;20517;-81
2024/01/14 09:25:37;;;;;;;21.02;17.73;;;3.20;99.90;;;;;;5035218;28;20036;-80
2024/01/14 09:28:03;;;;;;;19.65;17.80;;;3.20;99.90;;;;;;5041232;28;20047;-80
2024/01/14 09:30:29;;;;;;;19.73;17.80;;;3.30;99.90;;;;;;5032935;28;20037;-80
2024/01/14 09:32:55;;;;;;;20.52;18.65;;;3.40;99.90;;;;;;5034184;28;20044;-80
2024/01/14 09:35:20;;;;;;;19.38;17.48;;;3.50;99.90;;;;;;5039304;28;20048;-80
2024/01/14 09:37:46;;;;;;;19.75;18.13;;;3.70;99.90;;;;;;5034472;28;20163;-80
2024/01/14 09:40:14;;;;;;;19.83;17.80;;;3.70;99.90;;;;;;5038929;28;20444;-80
2024/01/14 09:42:44;;;;;;;19.98;17.88;;;3.80;99.90;;;;;;5024947;28;20696;-81
2024/01/14 09:45:10;;;;;;;20.05;18.33;;;3.90;99.90;;;;;;5038806;28;20040;-80
2024/01/14 09:47:37;;;;;;;21.77;17.55;;;3.90;99.90;;;;;;5030080;28;20098;-80
2024/01/14 09:50:04;;;;;;;20.55;18.55;;;4.00;99.90;;;;;;5027934;28;20044;-81
2024/01/14 09:52:33;;;;;;;19.52;17.75;;;4.10;99.90;;;;;;5027269;28;20162;-80
2024/01/14 09:54:59;;;;;;;18.98;17.23;;;4.20;99.90;;;;;;5043596;28;20040;-80
2024/01/14 09:57:28;;;;;;;20.30;18.27;;;4.30;99.90;;;;;;5042586;28;20098;-80
2024/01/14 09:59:55;;;;;;;18.08;16.23;;;4.40;99.90;;;;;;5040644;28;20163;-80
2024/01/14 10:02:21;;;;;;;17.55;15.20;;;4.40;99.90;;;;;;5055290;28;20476;-80
2024/01/14 10:04:48;;;;;;;20.17;18.45;;;4.40;99.90;;;;;;5047667;28;20512;-80
2024/01/14 10:07:15;;;;;;;19.80;17.77;;;4.40;99.90;;;;;;5027821;28;20102;-80
2024/01/14 10:09:42;;;;;;;17.83;16.00;;;4.50;99.90;;;;;;5047722;28;20488;-80
2024/01/14 10:12:09;;;;;;;21.42;19.65;;;4.60;99.90;;;;;;5061750;28;20036;-81
2024/01/14 10:14:35;;;;;;;20.35;18.52;;;4.60;99.90;;;;;;5045868;28;20155;-81
2024/01/14 10:17:01;;;;;;;20.80;19.00;;;4.60;99.90;;;;;;5036293;28;20040;-81
2024/01/14 10:19:27;;;;;;;19.95;18.38;;;4.50;99.90;;;;;;5053404;28;20048;-81
2024/01/14 10:21:54;;;;;;;20.25;18.55;;;4.50;99.90;;;;;;5070287;28;20044;-81
2024/01/14 10:24:23;;;;;;;19.20;17.75;;;4.50;99.90;;;;;;5036538;28;20561;-81
2024/01/14 10:26:55;;;;;;;20.17;18.30;;;4.50;99.90;;;;;;5053106;28;20150;-81
2024/01/14 10:29:22;;;;;;;20.05;17.90;;;4.50;99.90;;;;;;5035946;28;20400;-81
2024/01/14 10:31:48;;;;;;;19.67;17.73;;;4.60;99.90;;;;;;5050149;28;20095;-81
2024/01/14 10:34:17;;;;;;;20.17;18.17;;;4.50;99.90;;;;;;5052839;28;20039;-81
2024/01/14 10:36:42;;;;;;;17.08;15.35;;;4.70;99.90;;;;;;5070195;28;20066;-81
2024/01/14 10:39:11;;;;;;;18.33;16.35;;;4.90;99.90;;;;;;5032257;28;20053;-81
2024/01/14 10:41:36;;;;;;;21.20;19.35;;;5.20;99.90;;;;;;5056391;28;20087;-81
2024/01/14 10:44:02;;;;;;;17.88;15.98;;;5.30;99.90;;;;;;5037985;28;20033;-82
2024/01/14 10:46:33;;;;;;;15.93;13.10;;;5.30;99.90;;;;;;5038687;28;20040;-81
2024/01/14 10:49:10;;;;;;;17.95;13.82;;;5.30;99.90;;;;;;5058070;28;20079;-81
2024/01/14 10:51:40;;;;;;;15.18;13.63;;;5.30;99.90;;;;;;5020756;28;20493;-80
2024/01/14 10:54:24;;;;;;;19.27;17.55;;;5.20;99.90;;;;;;5024560;28;20056;-80
2024/01/14 10:57:15;;;;;;;16.27;14.55;;;5.20;99.90;;;;;;5060935;28;20043;-80
2024/01/14 10:59:43;;;;;;;17.02;15.57;;;5.10;99.90;;;;;;5041741;28;20051;-80
2024/01/14 11:02:16;;;;;;;18.00;16.35;;;5.10;99.90;;;;;;5036280;28;20059;-81
2024/01/14 11:04:44;;;;;;;19.20;17.50;;;5.10;99.90;;;;;;5025133;28;20517;-80
2024/01/14 11:07:13;;;;;;;18.50;16.52;;;5.20;99.90;;;;;;5038371;28;20381;-80
2024/01/14 11:09:41;;;;;;;17.98;16.23;;;5.20;99.90;;;;;;5047398;28;20048;-81
2024/01/14 11:12:14;;;;;;;18.67;16.75;;;5.30;99.90;;;;;;5046291;28;20060;-80
2024/01/14 11:15:01;;;;;;;17.98;16.55;;;5.30;99.90;;;;;;5045036;28;20044;-81
2024/01/14 11:17:47;;;;;;;17.80;16.20;;;5.40;99.90;;;;;;5033572;28;20094;-81
2024/01/14 11:20:20;;;;;;;17.80;16.20;;;5.40;99.90;;;;;;5048546;28;21381;-81
2024/01/14 11:22:46;;;;;;;18.98;17.00;;;5.40;99.90;;;;;;5065320;28;20036;-81
2024/01/14 11:25:16;;;;;;;16.40;14.85;;;5.50;99.90;;;;;;5050011;28;20033;-80
2024/01/14 11:27:42;;;;;;;18.02;14.70;;;5.50;99.90;;;;;;5048240;28;20044;-81
2024/01/14 11:30:17;;;;;;;16.83;13.50;;;5.50;99.90;;;;;;5043325;28;20049;-81
2024/01/14 11:32:42;;;;;;;15.07;13.77;;;5.50;99.90;;;;;;5032741;28;20117;-81
2024/01/14 11:35:09;;;;;;;15.45;13.98;;;5.40;99.90;;;;;;5046872;28;20070;-81
2024/01/14 11:37:43;;;;;;;13.88;11.75;;;5.60;99.90;;;;;;5032559;28;20044;-80
2024/01/14 11:40:26;;;;;;;12.20;11.00;;;5.70;99.90;;;;;;5064647;28;20396;-81
2024/01/14 11:42:57;;;;;;;13.27;10.10;;;5.80;99.90;;;;;;5024822;28;20440;-80
2024/01/14 11:45:23;;;;;;;12.07;10.85;;;5.80;99.90;;;;;;5062893;28;20036;-81
2024/01/14 11:47:50;;;;;;;15.20;10.10;;;5.70;99.90;;;;;;5046523;28;20051;-80
2024/01/14 11:50:18;;;;;;;10.18;9.20;;;5.70;99.90;;;;;;5038470;28;20037;-81
2024/01/14 11:52:53;;;;;;;10.82;9.70;;;5.60;99.90;;;;;;5019925;28;20045;-80
2024/01/14 11:55:29;;;;;;;12.18;10.48;;;5.50;99.90;;;;;;5040354;28;20041;-81
2024/01/14 11:57:55;;;;;;;11.27;9.73;;;5.50;99.90;;;;;;5012068;28;20616;-81
2024/01/14 12:00:26;;;;;;;11.75;10.55;;;5.40;99.90;;;;;;5041131;28;20052;-80
2024/01/14 12:03:15;;;;;;;15.48;10.75;;;5.50;99.90;;;;;;5042687;28;20079;-80
2024/01/14 12:05:42;;;;;;;13.98;9.10;;;5.70;99.90;;;;;;5044878;28;20083;-80
2024/01/14 12:08:09;;;;;;;11.23;9.18;;;5.80;99.90;;;;;;5027331;28;20224;-80
2024/01/14 12:10:35;;;;;;;13.15;9.43;;;6.00;99.90;;;;;;5019160;28;20488;-85
2024/01/14 12:13:04;;;;;;;12.95;8.73;;;6.10;99.90;;;;;;5057831;28;20163;-80
2024/01/14 12:15:30;;;;;;;12.20;9.00;;;6.10;99.90;;;;;;5058411;28;20167;-81
2024/01/14 12:17:58;;;;;;;12.80;8.68;;;6.20;99.90;;;;;;5026512;28;20579;-81
2024/01/14 12:20:24;;;;;;;9.27;8.38;;;6.20;99.90;;;;;;5043140;28;20041;-81
2024/01/14 12:23:04;;;;;;;9.68;8.35;;;6.30;99.90;;;;;;5043414;28;20047;-80
2024/01/14 12:25:30;;;;;;;10.10;7.95;;;6.50;99.90;;;;;;5059502;28;20040;-80
2024/01/14 12:27:56;;;;;;;9.02;8.07;;;6.60;99.90;;;;;;5042957;28;20033;-81
2024/01/14 12:30:30;;;;;;;10.93;7.93;;;6.70;99.90;;;;;;5042489;28;20456;-80
2024/01/14 12:32:58;;;;;;;9.15;7.68;;;6.90;99.90;;;;;;5040160;28;20048;-81
2024/01/14 12:35:35;;;;;;;10.80;7.72;;;7.00;99.90;;;;;;5027018;28;20425;-81